Time;durP1;ratioP1;P1;durP2;ratioP2;P2;SDS_P1;SDS_P2;PMS_P1;PMS_P2;Temp;Humidity;BMP_temperature;BMP_pressure;BME280_temperature;BME280_humidity;BME280_pressure;Samples;Min_cycle;Max_cycle;Signal;HPM_P1;HPM_P2
2023/02/24 00:00:30;;;;;;;18.53;9.57;;;6.60;99.90;;;;;;5056829;28;21394;-72
2023/02/24 00:03:04;;;;;;;23.10;9.77;;;6.60;99.90;;;;;;5061075;28;20550;-72
2023/02/24 00:05:33;;;;;;;14.17;9.70;;;6.50;99.90;;;;;;5057396;28;20566;-73
2023/02/24 00:08:01;;;;;;;27.70;9.80;;;6.50;99.90;;;;;;5060473;28;20490;-71
2023/02/24 00:10:27;;;;;;;17.07;9.37;;;6.40;99.90;;;;;;5058201;28;20498;-72
2023/02/24 00:12:54;;;;;;;16.00;9.20;;;6.50;99.90;;;;;;5050167;28;20496;-72
2023/02/24 00:15:21;;;;;;;21.30;9.70;;;6.50;99.90;;;;;;5060135;28;20462;-71
2023/02/24 00:17:48;;;;;;;16.83;9.93;;;6.60;99.90;;;;;;5055680;28;20481;-72
2023/02/24 00:20:17;;;;;;;14.33;9.17;;;6.50;99.90;;;;;;5058795;28;20467;-73
2023/02/24 00:22:45;;;;;;;24.47;10.27;;;6.50;99.90;;;;;;5052044;28;20905;-74
2023/02/24 00:25:13;;;;;;;21.50;9.40;;;6.30;99.90;;;;;;5058931;28;20520;-73
2023/02/24 00:27:40;;;;;;;17.17;9.50;;;6.30;99.90;;;;;;5056405;28;20483;-73
2023/02/24 00:30:10;;;;;;;19.13;9.60;;;6.40;99.90;;;;;;5052442;28;20458;-74
2023/02/24 00:32:37;;;;;;;11.80;8.93;;;6.40;99.90;;;;;;5059818;28;20469;-71
2023/02/24 00:35:05;;;;;;;20.50;11.17;;;6.50;99.90;;;;;;5059670;28;20556;-72
2023/02/24 00:37:32;;;;;;;25.50;11.00;;;6.40;99.90;;;;;;5057274;28;20473;-72
2023/02/24 00:39:59;;;;;;;33.57;11.63;;;6.40;99.90;;;;;;5048466;28;20983;-73
2023/02/24 00:42:27;;;;;;;18.93;9.90;;;6.40;99.90;;;;;;5051383;28;20496;-72
2023/02/24 00:44:54;;;;;;;23.40;9.77;;;6.30;99.90;;;;;;5058766;28;20467;-74
2023/02/24 00:47:22;;;;;;;26.73;13.33;;;6.30;99.90;;;;;;5059066;28;20520;-72
2023/02/24 00:49:49;;;;;;;23.07;10.20;;;6.20;99.90;;;;;;5052741;28;20837;-72
2023/02/24 00:52:18;;;;;;;23.90;10.90;;;6.20;99.90;;;;;;5057050;28;20965;-71
2023/02/24 00:54:46;;;;;;;17.20;9.60;;;6.20;99.90;;;;;;5057195;28;20455;-72
2023/02/24 00:57:15;;;;;;;29.77;9.80;;;6.20;99.90;;;;;;5056958;28;20464;-70
2023/02/24 00:59:46;;;;;;;18.00;8.87;;;6.10;99.90;;;;;;5057429;28;20467;-72
2023/02/24 01:02:14;;;;;;;23.97;9.27;;;6.10;99.90;;;;;;5058839;28;20459;-72
2023/02/24 01:04:43;;;;;;;14.00;8.53;;;6.00;99.90;;;;;;5050581;28;20512;-69
2023/02/24 01:07:11;;;;;;;21.70;9.90;;;6.00;99.90;;;;;;5050769;28;20510;-71
2023/02/24 01:09:40;;;;;;;17.83;8.43;;;6.00;99.90;;;;;;5057518;28;20460;-75
2023/02/24 01:15:08;;;;;;;28.50;10.00;;;6.00;99.90;;;;;;5019484;28;20461;-71
2023/02/24 01:17:36;;;;;;;18.10;8.70;;;5.90;99.90;;;;;;5047224;28;20510;-73
2023/02/24 01:20:13;;;;;;;22.07;9.10;;;5.90;99.90;;;;;;5059039;28;20957;-71
2023/02/24 01:22:41;;;;;;;25.00;9.30;;;5.90;99.90;;;;;;5057170;28;20544;-71
2023/02/24 01:25:07;;;;;;;23.23;9.87;;;6.00;99.90;;;;;;5051961;28;20949;-71
2023/02/24 01:27:35;;;;;;;14.23;9.00;;;6.00;99.90;;;;;;5055255;28;20484;-72
2023/02/24 01:30:03;;;;;;;20.70;9.70;;;6.00;99.90;;;;;;5049336;28;20468;-73
2023/02/24 01:32:32;;;;;;;16.97;9.07;;;6.00;99.90;;;;;;5064702;28;20584;-74
2023/02/24 01:34:59;;;;;;;21.83;9.70;;;6.00;99.90;;;;;;5060734;28;20936;-72
2023/02/24 01:37:27;;;;;;;11.00;9.57;;;5.90;99.90;;;;;;5053471;28;20899;-70
2023/02/24 01:39:54;;;;;;;27.70;9.00;;;5.80;99.90;;;;;;5054924;28;20727;-74
2023/02/24 01:42:22;;;;;;;13.50;9.03;;;5.80;99.90;;;;;;5057473;28;21005;-71
2023/02/24 01:45:14;;;;;;;36.10;11.40;;;5.80;99.90;;;;;;5060308;28;20462;-69
2023/02/24 01:47:43;;;;;;;21.97;10.30;;;5.70;99.90;;;;;;5054755;28;20483;-70
2023/02/24 01:50:13;;;;;;;29.13;11.53;;;5.70;99.90;;;;;;5052833;28;20498;-73
2023/02/24 01:52:45;;;;;;;17.17;10.77;;;5.70;99.90;;;;;;5056531;28;20876;-73
2023/02/24 01:55:18;;;;;;;44.90;12.00;;;5.70;99.90;;;;;;5047968;28;20459;-74
2023/02/24 01:57:46;;;;;;;14.97;9.60;;;5.60;99.90;;;;;;5051668;28;20503;-71
2023/02/24 02:00:31;;;;;;;31.50;10.93;;;5.60;99.90;;;;;;5052999;28;21095;-71
2023/02/24 02:03:06;;;;;;;17.77;10.40;;;5.50;99.90;;;;;;5057719;28;20471;-71
2023/02/24 02:05:33;;;;;;;19.73;8.80;;;5.40;99.90;;;;;;5058427;28;20643;-73
2023/02/24 02:08:03;;;;;;;15.13;8.70;;;5.40;99.90;;;;;;5059375;28;20483;-70
2023/02/24 02:10:30;;;;;;;22.20;9.67;;;5.40;99.90;;;;;;5052937;28;20582;-72
2023/02/24 02:12:58;;;;;;;17.40;9.13;;;5.40;99.90;;;;;;5056149;28;20518;-70
2023/02/24 02:15:25;;;;;;;15.50;9.10;;;5.30;99.90;;;;;;5052219;28;20815;-73
2023/02/24 02:18:02;;;;;;;23.50;9.60;;;5.30;99.90;;;;;;5055741;28;20459;-73
2023/02/24 02:21:03;;;;;;;24.33;9.47;;;5.20;99.90;;;;;;5060761;28;20450;-69
2023/02/24 02:23:48;;;;;;;26.90;9.60;;;5.30;99.90;;;;;;5058014;28;20802;-72
2023/02/24 02:26:43;;;;;;;17.60;8.47;;;5.20;99.90;;;;;;5054440;28;20494;-73
2023/02/24 02:29:36;;;;;;;23.63;9.80;;;5.20;99.90;;;;;;5055836;28;20486;-75
2023/02/24 02:32:30;;;;;;;23.03;8.30;;;5.10;99.90;;;;;;5052574;28;20462;-72
2023/02/24 02:35:07;;;;;;;19.20;8.40;;;5.00;99.90;;;;;;5057162;28;20550;-73
2023/02/24 02:37:41;;;;;;;23.23;9.03;;;4.90;99.90;;;;;;5051070;28;20538;-73
2023/02/24 02:40:18;;;;;;;13.63;7.87;;;5.00;99.90;;;;;;5053471;28;20468;-70
2023/02/24 02:42:49;;;;;;;15.93;8.60;;;5.10;99.90;;;;;;5056241;28;20561;-71
2023/02/24 02:45:19;;;;;;;27.20;9.63;;;5.10;99.90;;;;;;5055354;28;20837;-71
2023/02/24 02:47:52;;;;;;;20.77;8.60;;;5.00;99.90;;;;;;5055395;28;20525;-71
2023/02/24 02:50:27;;;;;;;26.13;10.33;;;5.10;99.90;;;;;;5050960;28;20474;-72
2023/02/24 02:52:59;;;;;;;17.13;9.10;;;5.10;99.90;;;;;;5057999;28;20455;-73
2023/02/24 02:55:35;;;;;;;17.87;9.40;;;5.10;99.90;;;;;;5050803;28;20471;-72
2023/02/24 02:58:07;;;;;;;25.43;10.20;;;5.10;99.90;;;;;;5056822;28;20472;-70
2023/02/24 03:00:40;;;;;;;35.40;10.50;;;5.10;99.90;;;;;;5055197;28;20447;-71
2023/02/24 03:03:11;;;;;;;15.10;8.93;;;5.10;99.90;;;;;;5048037;28;20463;-73
2023/02/24 03:05:45;;;;;;;16.60;10.30;;;5.20;99.90;;;;;;5051884;28;20453;-71
2023/02/24 03:08:17;;;;;;;19.73;10.60;;;5.10;99.90;;;;;;5061758;28;20481;-73
2023/02/24 03:10:49;;;;;;;18.47;9.93;;;5.00;99.90;;;;;;5057287;28;20480;-70
2023/02/24 03:13:18;;;;;;;19.23;10.40;;;5.10;99.90;;;;;;5055611;28;20466;-69
2023/02/24 03:15:46;;;;;;;22.57;10.43;;;5.00;99.90;;;;;;5060938;28;20467;-69
2023/02/24 03:18:19;;;;;;;11.70;10.23;;;5.00;99.90;;;;;;5058337;28;20476;-71
2023/02/24 03:20:50;;;;;;;20.60;10.47;;;5.00;99.90;;;;;;5060332;28;20464;-71
2023/02/24 03:23:20;;;;;;;38.60;11.20;;;4.90;99.90;;;;;;5061260;28;20993;-71
2023/02/24 03:25:53;;;;;;;26.27;11.07;;;4.90;99.90;;;;;;5054938;28;20890;-73
2023/02/24 03:28:27;;;;;;;23.07;12.40;;;5.00;99.90;;;;;;5058249;28;20485;-69
2023/02/24 03:31:02;;;;;;;26.00;11.10;;;5.10;99.90;;;;;;5061948;28;20890;-72
2023/02/24 03:33:35;;;;;;;21.80;12.37;;;5.00;99.90;;;;;;5057571;28;20935;-73
2023/02/24 03:36:05;;;;;;;15.27;10.77;;;5.00;99.90;;;;;;5051000;28;20469;-73
2023/02/24 03:38:37;;;;;;;18.63;11.10;;;5.00;99.90;;;;;;5057055;28;21646;-74
2023/02/24 03:41:09;;;;;;;14.90;10.60;;;5.00;99.90;;;;;;5058867;28;20484;-71
2023/02/24 03:43:40;;;;;;;16.73;11.40;;;4.90;99.90;;;;;;5051200;28;21047;-72
2023/02/24 03:46:07;;;;;;;18.30;11.60;;;4.90;99.90;;;;;;5053435;28;20470;-72
2023/02/24 03:48:41;;;;;;;20.07;11.30;;;5.00;99.90;;;;;;5048986;28;20772;-73
2023/02/24 03:51:15;;;;;;;18.90;11.93;;;5.00;99.90;;;;;;5051934;28;20991;-73
2023/02/24 03:53:53;;;;;;;19.00;11.97;;;5.00;99.90;;;;;;5059208;28;20797;-73
2023/02/24 03:56:29;;;;;;;16.57;11.10;;;5.00;99.90;;;;;;5059163;28;20546;-72
2023/02/24 03:59:11;;;;;;;16.40;11.70;;;5.00;99.90;;;;;;5056649;28;20459;-73
2023/02/24 04:01:45;;;;;;;19.47;11.30;;;4.90;99.90;;;;;;5052628;28;20990;-69
2023/02/24 04:04:19;;;;;;;21.87;12.17;;;4.90;99.90;;;;;;5054322;28;20482;-74
2023/02/24 04:06:52;;;;;;;15.37;10.23;;;4.80;99.90;;;;;;5057911;28;20464;-70
2023/02/24 04:09:26;;;;;;;20.53;13.70;;;4.80;99.90;;;;;;5059604;28;20532;-71
2023/02/24 04:11:57;;;;;;;20.07;12.00;;;4.80;99.90;;;;;;5058959;28;20934;-71
2023/02/24 04:14:30;;;;;;;24.53;12.00;;;4.80;99.90;;;;;;5064318;28;20475;-69
2023/02/24 04:17:06;;;;;;;38.60;12.83;;;4.80;99.90;;;;;;5058556;28;20468;-70
2023/02/24 04:19:37;;;;;;;30.07;11.90;;;4.80;99.90;;;;;;5047111;28;20826;-71
2023/02/24 04:22:09;;;;;;;23.50;12.30;;;4.70;99.90;;;;;;5058547;28;20506;-72
2023/02/24 04:24:36;;;;;;;19.47;12.20;;;4.80;99.90;;;;;;5060529;28;20507;-72
2023/02/24 04:27:06;;;;;;;21.43;10.50;;;4.80;99.90;;;;;;5060392;28;20465;-68
2023/02/24 04:29:37;;;;;;;23.97;11.87;;;4.80;99.90;;;;;;5058523;28;21028;-72
2023/02/24 04:32:07;;;;;;;27.10;12.30;;;4.60;99.90;;;;;;5053956;28;20478;-74
2023/02/24 04:34:34;;;;;;;19.50;12.87;;;4.60;99.90;;;;;;5051059;28;20473;-73
2023/02/24 04:37:02;;;;;;;15.90;12.20;;;4.60;99.90;;;;;;5060607;28;20477;-72
2023/02/24 04:39:31;;;;;;;17.80;11.50;;;4.60;99.90;;;;;;5059389;28;20463;-75
2023/02/24 04:42:00;;;;;;;21.63;12.23;;;4.60;99.90;;;;;;5052466;28;20510;-69
2023/02/24 04:44:28;;;;;;;26.47;13.83;;;4.60;99.90;;;;;;5060913;28;20550;-70
2023/02/24 04:46:55;;;;;;;24.87;12.80;;;4.60;99.90;;;;;;5059142;28;20569;-70
2023/02/24 04:49:22;;;;;;;22.07;11.43;;;4.60;99.90;;;;;;5054198;28;20527;-72
2023/02/24 04:51:50;;;;;;;23.77;11.70;;;4.60;99.90;;;;;;5054284;28;20477;-70
2023/02/24 04:54:18;;;;;;;19.60;11.77;;;4.50;99.90;;;;;;5057358;28;20459;-71
2023/02/24 04:56:49;;;;;;;20.33;12.10;;;4.50;99.90;;;;;;5064628;28;20459;-72
2023/02/24 04:59:16;;;;;;;16.70;11.80;;;4.40;99.90;;;;;;5057544;28;20462;-71
2023/02/24 05:01:43;;;;;;;22.60;13.03;;;4.40;99.90;;;;;;5057131;28;20959;-70
2023/02/24 05:04:11;;;;;;;22.90;13.13;;;4.40;99.90;;;;;;5054904;28;20460;-73
2023/02/24 05:06:42;;;;;;;18.90;12.13;;;4.30;99.90;;;;;;5046989;28;20488;-71
2023/02/24 05:09:12;;;;;;;15.73;11.63;;;4.30;99.90;;;;;;5063913;28;20581;-71
2023/02/24 05:11:41;;;;;;;19.93;12.20;;;4.40;99.90;;;;;;5051513;28;20492;-72
2023/02/24 05:14:10;;;;;;;16.60;12.10;;;4.40;99.90;;;;;;5056450;28;20874;-73
2023/02/24 05:16:42;;;;;;;17.23;11.93;;;4.40;99.90;;;;;;5053634;28;20480;-70
2023/02/24 05:21:53;;;;;;;16.37;11.20;;;4.50;99.90;;;;;;5051717;28;20571;-72
2023/02/24 05:24:24;;;;;;;23.67;12.37;;;4.50;99.90;;;;;;5050608;28;20469;-73
2023/02/24 05:26:56;;;;;;;22.73;13.27;;;4.40;99.90;;;;;;5059884;28;20476;-71
2023/02/24 05:29:27;;;;;;;20.50;11.70;;;4.40;99.90;;;;;;5058731;28;20890;-70
2023/02/24 05:31:55;;;;;;;27.60;11.73;;;4.30;99.90;;;;;;5054277;28;20458;-75
2023/02/24 05:34:23;;;;;;;18.13;11.57;;;4.30;99.90;;;;;;5058136;28;20522;-71
2023/02/24 05:36:52;;;;;;;17.97;11.43;;;4.20;99.90;;;;;;5052438;28;20483;-72
2023/02/24 05:39:19;;;;;;;21.83;11.73;;;4.30;99.90;;;;;;5057292;28;20876;-72
2023/02/24 05:41:47;;;;;;;23.10;12.00;;;4.20;99.90;;;;;;5062913;28;20483;-73
2023/02/24 05:44:21;;;;;;;17.90;11.53;;;4.20;99.90;;;;;;5059542;28;20463;-70
2023/02/24 05:46:51;;;;;;;16.97;10.40;;;4.20;99.90;;;;;;5055438;28;20822;-75
2023/02/24 05:49:22;;;;;;;16.40;12.03;;;4.20;99.90;;;;;;5052676;28;20487;-73
2023/02/24 05:51:53;;;;;;;28.13;13.00;;;4.10;99.90;;;;;;5049806;28;20463;-70
2023/02/24 05:54:22;;;;;;;20.50;11.27;;;4.10;99.90;;;;;;5055177;28;20833;-70
2023/02/24 05:56:49;;;;;;;28.63;12.07;;;4.00;99.90;;;;;;5054759;28;20563;-74
2023/02/24 05:59:20;;;;;;;18.50;12.60;;;3.90;99.90;;;;;;5056366;28;20460;-71
2023/02/24 06:01:51;;;;;;;15.83;11.73;;;3.90;99.90;;;;;;5054461;28;20470;-71
2023/02/24 06:04:38;;;;;;;17.30;11.50;;;3.80;99.90;;;;;;5054443;28;20806;-70
2023/02/24 06:07:05;;;;;;;21.17;11.43;;;3.80;99.90;;;;;;5056561;28;20478;-69
2023/02/24 06:09:33;;;;;;;30.03;14.60;;;3.80;99.90;;;;;;5049986;28;20530;-73
2023/02/24 06:12:01;;;;;;;27.53;12.63;;;3.80;99.90;;;;;;5056697;28;20537;-75
2023/02/24 06:14:28;;;;;;;25.27;13.40;;;3.90;99.90;;;;;;5049281;28;20464;-70
2023/02/24 06:16:56;;;;;;;24.50;13.60;;;3.90;99.90;;;;;;5068047;28;20491;-73
2023/02/24 06:19:25;;;;;;;17.70;12.67;;;3.90;99.90;;;;;;5061727;28;20483;-70
2023/02/24 06:21:52;;;;;;;29.87;12.83;;;3.90;99.90;;;;;;5059109;28;20475;-73
2023/02/24 06:24:19;;;;;;;18.07;14.97;;;3.90;99.90;;;;;;5055136;28;20548;-70
2023/02/24 06:26:48;;;;;;;28.87;14.43;;;3.90;99.90;;;;;;5056538;28;20777;-71
2023/02/24 06:29:18;;;;;;;26.57;14.40;;;3.80;99.90;;;;;;5050996;28;20603;-71
2023/02/24 06:31:47;;;;;;;21.93;13.90;;;3.90;99.90;;;;;;5065149;28;20488;-73
2023/02/24 06:34:17;;;;;;;22.33;15.77;;;3.90;99.90;;;;;;5053140;28;20454;-73
2023/02/24 06:36:43;;;;;;;30.83;15.03;;;3.90;99.90;;;;;;5048324;28;20469;-72
2023/02/24 06:39:13;;;;;;;31.93;14.30;;;3.90;99.90;;;;;;5059011;28;20463;-71
2023/02/24 06:41:41;;;;;;;23.07;13.77;;;3.80;99.90;;;;;;5053715;28;20491;-72
2023/02/24 06:44:08;;;;;;;23.43;13.40;;;3.90;99.90;;;;;;5060338;28;20981;-73
2023/02/24 06:46:35;;;;;;;21.43;13.97;;;3.90;99.90;;;;;;5063840;28;20526;-72
2023/02/24 06:49:03;;;;;;;26.73;13.83;;;4.00;99.90;;;;;;5058590;28;20486;-73
2023/02/24 06:51:32;;;;;;;18.93;13.13;;;4.00;99.90;;;;;;5056057;28;20870;-73
2023/02/24 06:53:59;;;;;;;29.93;14.00;;;4.00;99.90;;;;;;5060588;28;20455;-73
2023/02/24 06:56:27;;;;;;;27.53;13.07;;;3.90;99.90;;;;;;5058316;28;20509;-74
2023/02/24 06:58:55;;;;;;;30.80;13.73;;;4.00;99.90;;;;;;5059395;28;20474;-72
2023/02/24 07:01:25;;;;;;;25.50;13.07;;;4.00;99.90;;;;;;5053934;28;20467;-74
2023/02/24 07:06:51;;;;;;;29.80;12.73;;;4.10;99.90;;;;;;5039722;28;20528;-73
2023/02/24 07:09:19;;;;;;;17.57;12.10;;;4.20;99.90;;;;;;5062643;28;20567;-71
2023/02/24 07:11:50;;;;;;;29.40;13.40;;;4.30;99.90;;;;;;5054357;28;21047;-72
2023/02/24 07:14:18;;;;;;;18.80;12.70;;;4.40;99.90;;;;;;5053504;28;20897;-71
2023/02/24 07:16:45;;;;;;;42.03;16.17;;;4.30;99.90;;;;;;5058558;28;20922;-72
2023/02/24 07:19:14;;;;;;;22.60;12.60;;;4.40;99.90;;;;;;5047835;28;20471;-72
2023/02/24 07:21:45;;;;;;;19.70;12.70;;;4.40;99.90;;;;;;5058905;28;20473;-73
2023/02/24 07:24:23;;;;;;;23.20;13.13;;;4.50;99.90;;;;;;5065218;28;20944;-69
2023/02/24 07:26:56;;;;;;;21.30;12.97;;;4.60;99.90;;;;;;5062476;28;20554;-71
2023/02/24 07:29:23;;;;;;;23.23;11.57;;;4.60;99.90;;;;;;5055487;28;20825;-73
2023/02/24 07:31:53;;;;;;;20.60;12.73;;;4.50;99.90;;;;;;5058162;28;21015;-74
2023/02/24 07:34:23;;;;;;;22.90;12.00;;;4.50;99.90;;;;;;5054547;28;20561;-74
2023/02/24 07:36:50;;;;;;;12.87;10.90;;;4.60;99.90;;;;;;5056925;28;20546;-72
2023/02/24 07:39:19;;;;;;;13.20;11.90;;;4.50;99.90;;;;;;5061172;28;20492;-73
2023/02/24 07:41:48;;;;;;;18.10;10.73;;;4.60;99.90;;;;;;5057334;28;20580;-75
2023/02/24 07:44:16;;;;;;;17.27;10.63;;;4.50;99.90;;;;;;5060107;28;20496;-75
2023/02/24 07:46:43;;;;;;;28.33;11.90;;;4.70;99.90;;;;;;5061424;28;20463;-72
2023/02/24 07:49:13;;;;;;;33.20;12.13;;;4.70;99.90;;;;;;5062626;28;20475;-72
2023/02/24 07:51:41;;;;;;;23.03;10.63;;;4.80;99.90;;;;;;5059241;28;20993;-75
2023/02/24 07:54:10;;;;;;;18.00;12.10;;;4.90;99.90;;;;;;5045844;28;20476;-73
2023/02/24 07:56:44;;;;;;;16.03;11.50;;;4.90;99.90;;;;;;5051275;28;20466;-72
2023/02/24 07:59:14;;;;;;;26.37;12.80;;;5.00;99.90;;;;;;5059339;28;20866;-71
2023/02/24 08:01:48;;;;;;;17.13;12.03;;;5.10;99.90;;;;;;5054318;28;20469;-71
2023/02/24 08:04:16;;;;;;;15.50;11.60;;;5.20;99.90;;;;;;5045930;28;20453;-73
2023/02/24 08:06:44;;;;;;;16.07;12.27;;;5.10;99.90;;;;;;5053357;28;20461;-72
2023/02/24 08:09:19;;;;;;;14.33;12.83;;;5.20;99.90;;;;;;5062433;28;20453;-71
2023/02/24 08:11:51;;;;;;;19.20;14.50;;;5.20;99.90;;;;;;5053554;28;20489;-74
2023/02/24 08:14:19;;;;;;;16.17;14.30;;;5.10;99.90;;;;;;5053208;28;20514;-70
2023/02/24 08:16:49;;;;;;;18.43;15.13;;;5.10;99.90;;;;;;5051815;28;20468;-73
2023/02/24 08:19:19;;;;;;;17.23;14.23;;;5.10;99.90;;;;;;5053388;28;20474;-74
2023/02/24 08:21:49;;;;;;;17.60;14.70;;;5.20;99.90;;;;;;5050101;28;20471;-70
2023/02/24 08:24:19;;;;;;;19.23;15.23;;;5.30;99.90;;;;;;5058043;28;20464;-72
2023/02/24 08:27:02;;;;;;;16.37;15.13;;;5.30;99.90;;;;;;5057212;28;20474;-72
2023/02/24 08:29:30;;;;;;;23.43;15.57;;;5.40;99.90;;;;;;5053120;28;20517;-73
2023/02/24 08:31:57;;;;;;;21.10;15.97;;;5.40;99.90;;;;;;5058838;28;20885;-74
2023/02/24 08:34:30;;;;;;;18.47;16.53;;;5.40;99.90;;;;;;5054771;28;20473;-70
2023/02/24 08:36:57;;;;;;;18.87;16.23;;;5.40;99.90;;;;;;5054940;28;20466;-72
2023/02/24 08:39:28;;;;;;;19.07;17.07;;;5.60;99.90;;;;;;5052943;28;21472;-70
2023/02/24 08:41:57;;;;;;;20.17;16.80;;;5.50;99.90;;;;;;5055637;28;20479;-73
2023/02/24 08:44:26;;;;;;;19.67;17.47;;;5.60;99.90;;;;;;5051124;28;20499;-71
2023/02/24 08:46:53;;;;;;;20.20;17.70;;;5.60;99.90;;;;;;5053096;28;20478;-70
2023/02/24 08:49:23;;;;;;;19.20;17.27;;;5.50;99.90;;;;;;5055188;28;20890;-72
2023/02/24 08:51:51;;;;;;;20.53;17.93;;;5.60;99.90;;;;;;5054418;28;20962;-72
2023/02/24 08:54:25;;;;;;;20.43;18.37;;;5.70;99.90;;;;;;5049598;28;20468;-74
2023/02/24 08:56:54;;;;;;;36.43;18.23;;;5.60;99.90;;;;;;5057380;28;20474;-73
2023/02/24 08:59:37;;;;;;;20.30;18.20;;;5.60;99.90;;;;;;5054036;28;20813;-71
2023/02/24 09:02:18;;;;;;;20.73;18.40;;;5.60;99.90;;;;;;5053143;28;20499;-71
2023/02/24 09:04:45;;;;;;;24.33;18.73;;;5.80;99.90;;;;;;5047677;28;20467;-72
2023/02/24 09:07:17;;;;;;;21.90;20.00;;;5.80;99.90;;;;;;5046698;28;20474;-71
2023/02/24 09:09:44;;;;;;;20.73;18.87;;;5.80;99.90;;;;;;5050605;28;21084;-69
2023/02/24 09:12:20;;;;;;;20.30;18.30;;;5.80;99.90;;;;;;5050675;28;20489;-68
2023/02/24 09:14:54;;;;;;;21.23;19.20;;;6.00;99.90;;;;;;5055113;28;20466;-69
2023/02/24 09:17:38;;;;;;;20.33;18.40;;;6.20;99.90;;;;;;5053401;28;20469;-72
2023/02/24 09:20:54;;;;;;;24.90;19.00;;;6.10;99.90;;;;;;5051064;28;21072;-73
2023/02/24 09:23:18;;;;;;;20.70;18.97;;;6.10;99.90;;;;;;5048369;28;20447;-70
2023/02/24 09:25:49;;;;;;;21.00;19.00;;;5.90;99.90;;;;;;5044845;28;20754;-71
2023/02/24 09:28:18;;;;;;;21.07;19.27;;;6.10;99.90;;;;;;5052069;28;20517;-71
2023/02/24 09:30:55;;;;;;;25.23;19.63;;;6.00;99.90;;;;;;5050644;28;20482;-74
2023/02/24 09:33:25;;;;;;;21.27;19.33;;;6.00;99.90;;;;;;5051544;28;20989;-72
2023/02/24 09:36:01;;;;;;;20.30;18.57;;;6.00;99.90;;;;;;5051659;28;20473;-71
2023/02/24 09:41:31;;;;;;;21.03;19.23;;;6.20;99.90;;;;;;5050242;28;20571;-71
2023/02/24 09:44:02;;;;;;;22.90;20.40;;;6.10;99.90;;;;;;5047955;28;20561;-70
2023/02/24 09:46:35;;;;;;;23.30;19.30;;;6.30;99.90;;;;;;5052060;28;20527;-70
2023/02/24 09:49:08;;;;;;;20.90;19.10;;;6.50;99.90;;;;;;5056785;28;20867;-71
2023/02/24 09:51:41;;;;;;;21.93;19.70;;;6.40;99.90;;;;;;5056736;28;21013;-71
2023/02/24 09:54:14;;;;;;;22.70;20.53;;;6.50;99.90;;;;;;5056842;28;20463;-71
2023/02/24 09:56:48;;;;;;;29.53;20.37;;;6.50;99.90;;;;;;5055764;28;20896;-73
2023/02/24 09:59:26;;;;;;;23.20;20.80;;;6.40;99.90;;;;;;5052443;28;20477;-71
2023/02/24 10:02:02;;;;;;;31.23;20.93;;;6.30;99.90;;;;;;5051416;28;20456;-71
2023/02/24 10:04:39;;;;;;;23.10;21.10;;;6.20;99.90;;;;;;5050092;28;20832;-70
2023/02/24 10:07:12;;;;;;;21.70;19.37;;;6.20;99.90;;;;;;5055629;28;20470;-72
2023/02/24 10:09:43;;;;;;;19.60;17.60;;;6.10;99.90;;;;;;5056511;28;20565;-69
2023/02/24 10:12:16;;;;;;;23.80;20.40;;;5.90;99.90;;;;;;5052176;28;20982;-72
2023/02/24 10:14:51;;;;;;;20.80;18.80;;;6.00;99.90;;;;;;5053250;28;20557;-71
2023/02/24 10:17:24;;;;;;;20.03;18.43;;;6.10;99.90;;;;;;5050865;28;20833;-71
2023/02/24 10:19:58;;;;;;;19.50;17.80;;;6.00;99.90;;;;;;5045163;28;20471;-74
2023/02/24 10:22:38;;;;;;;27.47;18.43;;;6.00;99.90;;;;;;5052231;28;20468;-72
2023/02/24 10:25:22;;;;;;;22.63;19.10;;;6.00;99.90;;;;;;5051670;28;20915;-74
2023/02/24 10:27:58;;;;;;;19.13;17.50;;;5.90;99.90;;;;;;5056396;28;20472;-74
2023/02/24 10:30:40;;;;;;;20.17;18.07;;;5.90;99.90;;;;;;5051825;28;20476;-70
2023/02/24 10:33:24;;;;;;;18.73;17.10;;;5.90;99.90;;;;;;5045070;28;20494;-73
2023/02/24 10:35:53;;;;;;;22.13;17.30;;;5.90;99.90;;;;;;5050449;28;20902;-70
2023/02/24 10:38:21;;;;;;;20.33;16.80;;;6.00;99.90;;;;;;5048867;28;20454;-69
2023/02/24 10:40:55;;;;;;;19.90;18.10;;;5.90;99.90;;;;;;5060371;28;20478;-73
2023/02/24 10:43:30;;;;;;;24.33;17.87;;;5.80;99.90;;;;;;5057821;28;20460;-72
2023/02/24 10:46:04;;;;;;;18.60;16.97;;;5.80;99.90;;;;;;5056253;28;20961;-70
2023/02/24 10:48:37;;;;;;;24.33;17.87;;;5.80;99.90;;;;;;5053390;28;20462;-72
2023/02/24 10:51:17;;;;;;;18.13;16.27;;;5.80;99.90;;;;;;5048944;28;20491;-71
2023/02/24 10:53:52;;;;;;;18.40;16.73;;;5.80;99.90;;;;;;5048927;28;20727;-71
2023/02/24 10:56:26;;;;;;;19.40;17.80;;;5.70;99.90;;;;;;5058335;28;20461;-73
2023/02/24 10:59:39;;;;;;;20.03;17.90;;;5.70;99.90;;;;;;5058025;28;20459;-72
2023/02/24 11:02:23;;;;;;;21.40;17.50;;;5.70;99.90;;;;;;5052390;28;20471;-73
2023/02/24 11:05:23;;;;;;;19.07;17.37;;;5.60;99.90;;;;;;5055122;28;20464;-71
2023/02/24 11:07:54;;;;;;;18.33;16.83;;;5.70;99.90;;;;;;5056527;28;20451;-75
2023/02/24 11:10:31;;;;;;;27.70;18.33;;;5.70;99.90;;;;;;5055468;28;20864;-70
2023/02/24 11:18:48;;;;;;;25.30;16.70;;;5.60;99.90;;;;;;5014919;28;20468;-72
2023/02/24 11:21:18;;;;;;;18.40;16.87;;;5.60;99.90;;;;;;5009441;28;20466;-73
2023/02/24 11:23:47;;;;;;;25.60;20.00;;;5.40;99.90;;;;;;5030515;28;20492;-71
2023/02/24 11:26:16;;;;;;;22.47;19.67;;;5.40;99.90;;;;;;5047635;28;20548;-72
2023/02/24 11:28:55;;;;;;;20.63;18.90;;;5.20;99.90;;;;;;5056116;28;20511;-69
2023/02/24 11:31:42;;;;;;;26.83;18.83;;;5.10;99.90;;;;;;5056965;28;20489;-71
2023/02/24 11:34:17;;;;;;;19.97;18.27;;;5.00;99.90;;;;;;5057168;28;20544;-71
2023/02/24 11:36:55;;;;;;;22.00;20.33;;;4.90;99.90;;;;;;5059842;28;20600;-71
2023/02/24 11:39:41;;;;;;;24.27;22.00;;;4.80;99.90;;;;;;5058907;28;20981;-71
2023/02/24 11:42:11;;;;;;;30.43;23.20;;;4.80;99.90;;;;;;5046600;28;20474;-71
2023/02/24 11:44:50;;;;;;;25.93;23.30;;;4.80;99.90;;;;;;5056626;28;20471;-71
2023/02/24 11:47:22;;;;;;;26.97;24.27;;;4.80;99.90;;;;;;5057385;28;20470;-73
2023/02/24 11:49:52;;;;;;;27.40;24.93;;;4.70;99.90;;;;;;5053150;28;20471;-72
2023/02/24 11:52:27;;;;;;;36.67;26.60;;;4.70;99.90;;;;;;5054198;28;20510;-71
2023/02/24 11:54:56;;;;;;;31.30;24.90;;;4.70;99.90;;;;;;5055684;28;20863;-69
2023/02/24 11:57:30;;;;;;;26.13;23.77;;;4.70;99.90;;;;;;5050804;28;20468;-70
2023/02/24 12:00:03;;;;;;;28.70;22.63;;;4.70;99.90;;;;;;5058219;28;20703;-72
2023/02/24 12:02:42;;;;;;;24.53;22.00;;;4.70;99.90;;;;;;5053608;28;20824;-74
2023/02/24 12:05:15;;;;;;;29.37;23.13;;;4.80;99.90;;;;;;5057929;28;20974;-74
2023/02/24 12:07:49;;;;;;;24.93;22.30;;;4.70;99.90;;;;;;5050628;28;21003;-72
2023/02/24 12:10:20;;;;;;;24.93;22.67;;;4.70;99.90;;;;;;5052926;28;20513;-73
2023/02/24 12:12:54;;;;;;;24.97;22.07;;;4.70;99.90;;;;;;5053144;28;20472;-73
2023/02/24 12:15:25;;;;;;;30.10;22.50;;;4.70;99.90;;;;;;5058866;28;20463;-73
2023/02/24 12:18:00;;;;;;;25.87;23.37;;;4.60;99.90;;;;;;5060991;28;21011;-72
2023/02/24 12:20:31;;;;;;;26.03;22.00;;;4.70;99.90;;;;;;5056344;28;20551;-72
2023/02/24 12:23:16;;;;;;;21.57;19.60;;;4.90;99.90;;;;;;5051040;28;20467;-72
2023/02/24 12:25:54;;;;;;;30.30;20.80;;;4.90;99.90;;;;;;5050213;28;20465;-74
2023/02/24 12:28:34;;;;;;;26.77;20.80;;;4.90;99.90;;;;;;5052859;28;20460;-74
2023/02/24 12:31:11;;;;;;;23.27;19.90;;;4.90;99.90;;;;;;5052757;28;20480;-74
2023/02/24 12:33:49;;;;;;;22.50;20.70;;;4.90;99.90;;;;;;5059473;28;20721;-73
2023/02/24 12:36:27;;;;;;;27.93;22.03;;;4.90;99.90;;;;;;5049016;28;20470;-74
2023/02/24 12:39:05;;;;;;;24.30;21.90;;;4.90;99.90;;;;;;5052991;28;20735;-71
2023/02/24 12:41:43;;;;;;;22.43;20.27;;;5.00;99.90;;;;;;5054066;28;20583;-72
2023/02/24 12:44:22;;;;;;;22.63;20.53;;;4.90;99.90;;;;;;5056727;28;20460;-72
2023/02/24 12:46:56;;;;;;;34.03;21.30;;;5.10;99.90;;;;;;5064267;28;20465;-72
2023/02/24 12:49:39;;;;;;;24.00;21.53;;;5.00;99.90;;;;;;5055206;28;20459;-72
2023/02/24 12:52:16;;;;;;;23.00;20.33;;;5.00;99.90;;;;;;5057164;28;20990;-70
2023/02/24 12:54:49;;;;;;;24.10;20.60;;;5.10;99.90;;;;;;5062406;28;20473;-71
2023/02/24 12:57:26;;;;;;;23.83;21.70;;;5.10;99.90;;;;;;5053381;28;20616;-72
2023/02/24 12:59:54;;;;;;;31.70;23.10;;;5.10;99.90;;;;;;5050220;28;20466;-72
2023/02/24 13:02:28;;;;;;;23.83;21.73;;;5.00;99.90;;;;;;5051905;28;20470;-72
2023/02/24 13:05:04;;;;;;;26.90;22.10;;;5.00;99.90;;;;;;5059252;28;20467;-73
2023/02/24 13:07:50;;;;;;;29.37;23.13;;;5.00;99.90;;;;;;5056429;28;20863;-72
2023/02/24 13:10:29;;;;;;;24.10;21.70;;;5.10;99.90;;;;;;5052847;28;20462;-73
2023/02/24 13:13:07;;;;;;;24.43;21.80;;;5.10;99.90;;;;;;5055301;28;20479;-71
2023/02/24 13:15:33;;;;;;;29.10;22.20;;;5.20;99.90;;;;;;5055644;28;20581;-72
2023/02/24 13:18:01;;;;;;;23.63;21.53;;;5.20;99.90;;;;;;5051329;28;20561;-70
2023/02/24 13:20:30;;;;;;;27.37;22.10;;;5.20;99.90;;;;;;5050489;28;20462;-70